Time;durP1;ratioP1;P1;durP2;ratioP2;P2;SDS_P1;SDS_P2;PMS_P1;PMS_P2;Temp;Humidity;BMP_temperature;BMP_pressure;BME280_temperature;BME280_humidity;BME280_pressure;Samples;Min_cycle;Max_cycle;Signal;HPM_P1;HPM_P2
2022/01/04 00:01:48;;;;;;;7.95;1.08;;;9.90;90.00;;;;;;5009059;28;20041;-72
2022/01/04 00:04:15;;;;;;;4.60;0.98;;;9.90;90.00;;;;;;5010452;28;20500;-70
2022/01/04 00:06:48;;;;;;;4.13;1.20;;;9.90;90.00;;;;;;4966298;28;20046;-72
2022/01/04 00:09:40;;;;;;;2.91;0.97;;;9.90;90.00;;;;;;4208735;28;10149657;-71
2022/01/04 00:15:12;;;;;;;7.22;1.27;;;9.90;90.00;;;;;;4991580;28;20505;-71
2022/01/04 00:17:46;;;;;;;4.53;1.30;;;9.90;90.10;;;;;;4990539;28;20042;-70
2022/01/04 00:20:13;;;;;;;2.28;0.93;;;9.90;90.10;;;;;;4991531;28;20055;-71
2022/01/04 00:22:40;;;;;;;4.22;1.45;;;9.90;90.10;;;;;;4990624;28;20050;-72
2022/01/04 00:25:10;;;;;;;3.33;1.20;;;9.90;90.10;;;;;;4990271;28;20114;-71
2022/01/04 00:27:37;;;;;;;1.45;0.80;;;9.90;90.20;;;;;;4990695;28;20048;-70
2022/01/04 00:30:06;;;;;;;5.60;1.58;;;9.90;90.20;;;;;;4990846;28;20060;-71
2022/01/04 00:32:33;;;;;;;3.40;1.13;;;9.90;90.10;;;;;;4991241;28;20101;-72
2022/01/04 00:35:00;;;;;;;2.30;0.85;;;9.90;90.20;;;;;;4991374;28;20046;-70
2022/01/04 00:37:32;;;;;;;3.45;0.95;;;9.90;90.20;;;;;;4992609;28;20420;-71
2022/01/04 00:39:59;;;;;;;5.18;1.33;;;9.90;90.20;;;;;;4991943;28;20091;-71
2022/01/04 00:42:27;;;;;;;5.47;1.25;;;9.90;90.20;;;;;;4992025;28;20122;-71
2022/01/04 00:44:54;;;;;;;3.15;1.23;;;9.90;90.20;;;;;;4992106;28;20042;-72
2022/01/04 00:47:26;;;;;;;4.80;1.48;;;9.90;90.20;;;;;;4992722;28;20404;-71
2022/01/04 00:49:52;;;;;;;4.20;1.30;;;9.90;90.20;;;;;;4997553;28;20050;-71
2022/01/04 00:52:22;;;;;;;3.50;1.55;;;9.90;90.20;;;;;;4992510;28;20060;-71
2022/01/04 00:54:50;;;;;;;3.43;1.33;;;9.90;90.10;;;;;;4991399;28;20046;-70
2022/01/04 00:57:17;;;;;;;6.50;1.50;;;9.90;90.10;;;;;;4991261;28;20086;-70
2022/01/04 00:59:45;;;;;;;3.35;1.02;;;9.90;90.10;;;;;;4992047;28;20046;-70
2022/01/04 01:02:12;;;;;;;2.83;0.95;;;9.90;90.10;;;;;;4987657;28;20500;-73
2022/01/04 01:04:39;;;;;;;2.78;1.40;;;9.90;90.10;;;;;;4990982;28;20555;-70
2022/01/04 01:07:06;;;;;;;3.40;1.00;;;9.90;90.10;;;;;;4992423;28;20048;-71
2022/01/04 01:09:41;;;;;;;1.95;0.80;;;9.90;90.10;;;;;;4991054;28;20050;-73
2022/01/04 01:12:11;;;;;;;2.38;0.90;;;9.90;90.10;;;;;;5027079;28;20065;-70
2022/01/04 01:14:38;;;;;;;4.20;1.20;;;9.90;90.20;;;;;;5030683;28;20048;-71
2022/01/04 01:17:06;;;;;;;1.88;0.70;;;9.90;90.10;;;;;;5031362;28;20072;-72
2022/01/04 01:19:36;;;;;;;1.00;0.47;;;9.90;90.10;;;;;;5030725;28;20828;-71
2022/01/04 01:22:03;;;;;;;1.90;0.70;;;9.90;90.20;;;;;;5030135;28;20389;-70
2022/01/04 01:24:30;;;;;;;2.00;0.85;;;9.90;90.10;;;;;;5031077;28;20049;-71
2022/01/04 01:27:05;;;;;;;1.90;0.82;;;9.90;90.20;;;;;;5029438;28;20411;-70
2022/01/04 01:29:32;;;;;;;2.33;0.82;;;9.90;90.20;;;;;;5030235;28;20041;-70
2022/01/04 01:31:59;;;;;;;1.27;0.60;;;9.90;90.20;;;;;;5030611;28;20041;-72
2022/01/04 01:34:27;;;;;;;4.60;0.77;;;9.90;90.20;;;;;;5030083;28;20518;-71
2022/01/04 01:36:54;;;;;;;2.08;0.95;;;9.90;90.20;;;;;;5028207;28;20052;-71
2022/01/04 01:39:21;;;;;;;4.43;0.85;;;9.90;90.20;;;;;;5028811;28;20428;-70
2022/01/04 01:41:48;;;;;;;1.60;0.75;;;9.90;90.30;;;;;;5028576;28;20419;-70
2022/01/04 01:44:15;;;;;;;2.95;0.77;;;9.90;90.20;;;;;;5027669;28;20037;-72
2022/01/04 01:46:42;;;;;;;2.70;0.77;;;9.90;90.30;;;;;;5028222;28;20037;-70
2022/01/04 01:49:09;;;;;;;0.90;0.50;;;9.90;90.20;;;;;;5028717;28;20041;-70
2022/01/04 01:51:37;;;;;;;1.02;0.52;;;9.90;90.20;;;;;;5028620;28;20041;-72
2022/01/04 01:54:05;;;;;;;3.42;0.60;;;9.90;90.20;;;;;;5028329;28;20430;-73
2022/01/04 01:56:32;;;;;;;2.53;0.50;;;9.90;90.20;;;;;;5027947;28;20057;-72
2022/01/04 01:58:59;;;;;;;1.17;0.40;;;9.90;90.20;;;;;;5029474;28;20045;-72
2022/01/04 02:01:26;;;;;;;3.85;0.55;;;9.90;90.20;;;;;;5007944;28;20450;-70
2022/01/04 02:03:53;;;;;;;1.25;0.70;;;9.90;90.20;;;;;;5028265;28;20406;-71
2022/01/04 02:06:21;;;;;;;1.42;0.55;;;9.90;90.30;;;;;;5028295;28;20041;-72
2022/01/04 02:08:50;;;;;;;1.58;0.55;;;9.90;90.30;;;;;;5027383;28;20045;-71
2022/01/04 02:11:19;;;;;;;2.35;0.55;;;9.90;90.30;;;;;;5028070;28;20054;-72
2022/01/04 02:13:47;;;;;;;2.40;0.52;;;9.90;90.30;;;;;;5029174;28;20566;-73
2022/01/04 02:16:14;;;;;;;1.10;0.50;;;9.90;90.20;;;;;;5030386;28;20049;-73
2022/01/04 02:18:41;;;;;;;2.83;0.63;;;9.90;90.30;;;;;;5029369;28;20065;-71
2022/01/04 02:21:10;;;;;;;2.72;0.63;;;9.90;90.30;;;;;;5029954;28;20083;-71
2022/01/04 02:23:37;;;;;;;2.35;0.85;;;9.90;90.30;;;;;;5030138;28;20053;-71
2022/01/04 02:26:04;;;;;;;4.32;1.77;;;9.90;90.30;;;;;;5029060;28;20045;-71
2022/01/04 02:28:32;;;;;;;5.35;1.27;;;9.90;90.30;;;;;;5028736;28;20050;-71
2022/01/04 02:30:59;;;;;;;5.70;1.05;;;9.90;90.30;;;;;;5030062;28;20040;-72
2022/01/04 02:33:26;;;;;;;3.78;1.23;;;9.90;90.40;;;;;;5012507;28;20049;-70
2022/01/04 02:35:53;;;;;;;3.78;1.38;;;9.90;90.40;;;;;;5028695;28;20048;-72
2022/01/04 02:38:22;;;;;;;5.95;1.33;;;9.90;90.40;;;;;;5028794;28;20329;-72
2022/01/04 02:40:49;;;;;;;7.82;1.85;;;9.90;90.40;;;;;;5029600;28;20639;-71
2022/01/04 02:43:15;;;;;;;2.33;1.10;;;9.90;90.40;;;;;;5027946;28;20156;-71
2022/01/04 02:45:42;;;;;;;6.47;1.52;;;9.90;90.40;;;;;;5030179;28;20053;-73
2022/01/04 02:48:09;;;;;;;4.43;1.50;;;9.90;90.40;;;;;;5029138;28;20491;-70
2022/01/04 02:50:36;;;;;;;3.58;1.10;;;9.90;90.50;;;;;;5029404;28;20041;-73
2022/01/04 02:53:03;;;;;;;2.13;0.93;;;9.90;90.50;;;;;;5028175;28;20033;-72
2022/01/04 02:55:33;;;;;;;5.07;1.40;;;9.90;90.50;;;;;;5028718;28;20111;-70
2022/01/04 02:58:00;;;;;;;3.35;1.38;;;9.90;90.50;;;;;;5028638;28;20056;-71
2022/01/04 03:00:30;;;;;;;4.55;1.83;;;9.90;90.50;;;;;;5025873;28;20103;-71
2022/01/04 03:02:57;;;;;;;5.07;1.70;;;9.90;90.50;;;;;;5028552;28;20037;-71
2022/01/04 03:05:24;;;;;;;3.03;0.98;;;9.90;90.40;;;;;;5029312;28;20048;-71
2022/01/04 03:07:51;;;;;;;3.47;1.30;;;9.90;90.40;;;;;;5028443;28;20069;-72
2022/01/04 03:10:18;;;;;;;1.63;0.95;;;9.90;90.40;;;;;;5027606;28;20148;-71
2022/01/04 03:12:46;;;;;;;2.88;1.15;;;9.90;90.40;;;;;;5028223;28;20120;-70
2022/01/04 03:15:14;;;;;;;1.05;0.65;;;9.90;90.40;;;;;;5027865;28;20045;-70
2022/01/04 03:17:42;;;;;;;2.83;0.55;;;9.90;90.40;;;;;;5027041;28;20057;-71
2022/01/04 03:20:11;;;;;;;3.30;0.88;;;9.90;90.50;;;;;;5025758;28;20033;-72
2022/01/04 03:22:38;;;;;;;1.05;0.40;;;9.90;90.50;;;;;;5027183;28;20045;-71
2022/01/04 03:25:05;;;;;;;1.15;0.50;;;9.90;90.50;;;;;;5026343;28;20056;-71
2022/01/04 03:27:32;;;;;;;1.17;0.40;;;9.90;90.50;;;;;;5025820;28;20037;-70
2022/01/04 03:30:01;;;;;;;0.98;0.40;;;9.90;90.50;;;;;;5027191;28;20246;-72
2022/01/04 03:32:31;;;;;;;2.58;0.82;;;9.90;90.50;;;;;;5026754;28;20123;-72
2022/01/04 03:34:58;;;;;;;0.85;0.50;;;9.90;90.50;;;;;;5026897;28;20045;-71
2022/01/04 03:37:25;;;;;;;0.88;0.28;;;9.90;90.50;;;;;;5026546;28;20180;-70
2022/01/04 03:39:52;;;;;;;1.10;0.30;;;9.90;90.50;;;;;;5025894;28;20050;-70
2022/01/04 03:42:19;;;;;;;0.98;0.40;;;9.90;90.60;;;;;;5026493;28;20041;-71
2022/01/04 03:44:46;;;;;;;1.40;0.40;;;9.90;90.60;;;;;;5026376;28;20045;-71
2022/01/04 03:47:15;;;;;;;2.85;0.30;;;9.90;90.60;;;;;;5027003;28;20064;-72
2022/01/04 03:49:42;;;;;;;0.65;0.28;;;9.90;90.70;;;;;;5026457;28;20396;-72
2022/01/04 03:52:09;;;;;;;1.42;0.38;;;9.90;90.60;;;;;;5027338;28;20041;-73
2022/01/04 03:54:36;;;;;;;1.98;0.43;;;9.90;90.60;;;;;;5027145;28;20553;-71
2022/01/04 03:57:03;;;;;;;0.55;0.30;;;9.90;90.60;;;;;;5027442;28;20048;-70
2022/01/04 03:59:30;;;;;;;0.52;0.30;;;10.00;90.70;;;;;;5010220;28;20096;-71
2022/01/04 04:01:57;;;;;;;1.27;0.40;;;9.90;90.60;;;;;;5025159;28;20050;-70
2022/01/04 04:04:25;;;;;;;0.63;0.22;;;10.00;90.60;;;;;;5027188;28;20372;-69
2022/01/04 04:06:52;;;;;;;0.10;0.10;;;9.90;90.60;;;;;;5028469;28;20116;-71
2022/01/04 04:09:19;;;;;;;1.02;0.52;;;9.90;90.60;;;;;;5027438;28;20034;-71
2022/01/04 04:11:46;;;;;;;0.15;0.10;;;9.90;90.70;;;;;;5027877;28;20073;-70
2022/01/04 04:14:13;;;;;;;0.50;0.17;;;10.00;90.70;;;;;;5028358;28;20038;-72
2022/01/04 04:16:40;;;;;;;0.10;0.10;;;9.90;90.70;;;;;;5028215;28;20049;-73
2022/01/04 04:19:07;;;;;;;0.93;0.20;;;9.90;90.70;;;;;;5028177;28;20037;-71
2022/01/04 04:21:36;;;;;;;0.35;0.10;;;9.90;90.80;;;;;;5026591;28;20132;-72
2022/01/04 04:24:02;;;;;;;0.77;0.20;;;10.00;90.80;;;;;;5027686;28;20045;-70
2022/01/04 04:26:29;;;;;;;0.20;0.10;;;10.00;90.80;;;;;;5027503;28;20426;-72
2022/01/04 04:28:56;;;;;;;0.15;0.13;;;10.00;90.90;;;;;;5028225;28;20060;-71
2022/01/04 04:31:23;;;;;;;0.20;0.10;;;10.00;90.80;;;;;;5028475;28;20128;-70
2022/01/04 04:33:50;;;;;;;0.70;0.22;;;10.00;90.80;;;;;;5028194;28;20298;-71
2022/01/04 04:36:17;;;;;;;0.40;0.30;;;10.00;90.80;;;;;;5028294;28;20061;-70
2022/01/04 04:38:45;;;;;;;0.65;0.20;;;10.10;90.80;;;;;;5030560;28;20041;-70
2022/01/04 04:41:12;;;;;;;0.93;0.47;;;10.10;90.80;;;;;;5032311;28;20056;-70
2022/01/04 04:43:39;;;;;;;0.70;0.30;;;10.10;90.90;;;;;;5031812;28;20049;-71
2022/01/04 04:46:06;;;;;;;0.32;0.20;;;10.10;91.00;;;;;;5031809;28;20567;-70
2022/01/04 04:48:33;;;;;;;0.50;0.30;;;10.10;91.00;;;;;;5013158;28;20049;-72
2022/01/04 04:51:00;;;;;;;1.65;0.75;;;10.10;91.00;;;;;;5031627;28;20159;-71
2022/01/04 04:53:28;;;;;;;1.38;0.50;;;10.10;91.10;;;;;;5031459;28;20053;-72
2022/01/04 04:55:57;;;;;;;0.73;0.38;;;10.10;91.10;;;;;;5029340;28;20038;-70
2022/01/04 04:58:24;;;;;;;0.70;0.40;;;10.20;90.90;;;;;;5029800;28;20053;-71
2022/01/04 05:00:50;;;;;;;0.93;0.55;;;10.20;91.00;;;;;;5025527;28;20071;-70
2022/01/04 05:03:19;;;;;;;1.00;0.40;;;10.20;90.90;;;;;;5029598;28;20053;-73
2022/01/04 05:05:46;;;;;;;1.17;0.47;;;10.30;91.00;;;;;;5028933;28;20538;-71
2022/01/04 05:08:13;;;;;;;0.68;0.28;;;10.30;91.00;;;;;;5028638;28;20486;-71
2022/01/04 05:10:42;;;;;;;0.45;0.22;;;10.40;90.90;;;;;;5029052;28;20061;-72
2022/01/04 05:13:10;;;;;;;0.57;0.38;;;10.40;90.70;;;;;;5029186;28;20057;-73
2022/01/04 05:15:37;;;;;;;0.80;0.43;;;10.40;90.80;;;;;;5028599;28;20061;-72
2022/01/04 05:18:04;;;;;;;0.77;0.32;;;10.40;90.90;;;;;;5029396;28;20136;-70
2022/01/04 05:20:31;;;;;;;2.05;0.35;;;10.40;90.70;;;;;;5028314;28;20046;-72
2022/01/04 05:22:58;;;;;;;0.65;0.30;;;10.40;90.70;;;;;;5028052;28;20132;-71
2022/01/04 05:25:25;;;;;;;0.40;0.20;;;10.40;90.70;;;;;;5027655;28;20045;-70
2022/01/04 05:27:52;;;;;;;0.93;0.40;;;10.40;90.60;;;;;;5029635;28;20053;-71
2022/01/04 05:30:20;;;;;;;0.88;0.30;;;10.50;90.60;;;;;;5027669;28;20060;-72
2022/01/04 05:32:47;;;;;;;0.70;0.40;;;10.40;90.60;;;;;;5028737;28;20045;-70
2022/01/04 05:35:14;;;;;;;0.40;0.40;;;10.50;90.70;;;;;;5030653;28;20188;-72
2022/01/04 05:37:41;;;;;;;1.55;0.25;;;10.50;90.50;;;;;;5030616;28;20126;-73
2022/01/04 05:40:09;;;;;;;1.38;0.30;;;10.50;90.60;;;;;;5030315;28;20080;-71
2022/01/04 05:42:36;;;;;;;2.28;0.30;;;10.40;90.60;;;;;;5029962;28;20041;-72
2022/01/04 05:45:04;;;;;;;0.93;0.30;;;10.50;90.70;;;;;;5030120;28;20049;-72
2022/01/04 05:47:32;;;;;;;2.50;0.28;;;10.50;90.70;;;;;;5030156;28;20045;-72
2022/01/04 05:49:59;;;;;;;0.65;0.20;;;10.50;90.70;;;;;;5029949;28;20038;-72
2022/01/04 05:52:26;;;;;;;0.47;0.22;;;10.50;90.60;;;;;;5029853;28;20049;-70
2022/01/04 05:54:53;;;;;;;0.70;0.30;;;10.50;90.50;;;;;;5029784;28;20056;-72
2022/01/04 05:57:20;;;;;;;0.57;0.20;;;10.50;90.70;;;;;;5030483;28;20049;-72
2022/01/04 05:59:47;;;;;;;0.17;0.17;;;10.50;90.50;;;;;;5029652;28;20054;-71
2022/01/04 06:02:14;;;;;;;0.28;0.20;;;10.50;90.70;;;;;;5027475;28;20041;-71
2022/01/04 06:04:43;;;;;;;0.85;0.50;;;10.50;90.70;;;;;;5029587;28;20049;-70
2022/01/04 06:07:10;;;;;;;0.57;0.30;;;10.50;90.70;;;;;;5030084;28;20037;-70
2022/01/04 06:09:43;;;;;;;0.80;0.40;;;10.40;90.60;;;;;;5029375;28;20053;-71
2022/01/04 06:14:52;;;;;;;0.70;0.30;;;10.40;90.80;;;;;;5029308;28;20045;-72
2022/01/04 06:17:21;;;;;;;0.35;0.25;;;10.40;90.90;;;;;;5029670;28;20053;-71
2022/01/04 06:19:49;;;;;;;0.65;0.40;;;10.40;90.90;;;;;;5030734;28;20037;-70
2022/01/04 06:22:16;;;;;;;1.05;0.35;;;10.40;91.00;;;;;;5029614;28;20052;-70
2022/01/04 06:24:43;;;;;;;4.10;0.38;;;10.40;91.00;;;;;;5029446;28;20208;-70
2022/01/04 06:27:11;;;;;;;1.05;0.45;;;10.40;90.80;;;;;;5027725;28;20042;-70
2022/01/04 06:29:39;;;;;;;0.65;0.20;;;10.40;90.80;;;;;;5029102;28;20422;-71
2022/01/04 06:32:07;;;;;;;0.22;0.10;;;10.40;90.60;;;;;;5012069;28;20474;-70
2022/01/04 06:34:34;;;;;;;0.57;0.10;;;10.40;90.40;;;;;;5028009;28;20038;-71
2022/01/04 06:37:03;;;;;;;0.10;0.10;;;10.40;89.90;;;;;;5027568;28;20069;-73
2022/01/04 06:39:31;;;;;;;0.00;0.00;;;10.40;89.10;;;;;;5027676;28;20522;-71
2022/01/04 06:41:58;;;;;;;0.20;0.10;;;10.30;89.30;;;;;;5027043;28;20051;-71
2022/01/04 06:44:25;;;;;;;0.10;0.10;;;10.20;89.40;;;;;;5027203;28;20044;-71
2022/01/04 06:46:52;;;;;;;0.00;0.00;;;10.20;89.50;;;;;;5027750;28;20448;-72
2022/01/04 06:49:20;;;;;;;0.00;0.00;;;10.20;89.30;;;;;;5026489;28;20794;-72
2022/01/04 06:51:48;;;;;;;0.00;0.00;;;10.20;89.10;;;;;;5024496;28;20045;-70
2022/01/04 06:54:19;;;;;;;0.45;0.10;;;10.10;89.10;;;;;;5028093;28;20049;-72
2022/01/04 06:56:46;;;;;;;;;;;10.10;89.10;;;;;;5026485;28;20053;-71
2022/01/04 06:59:13;;;;;;;0.00;0.00;;;10.10;89.10;;;;;;5023999;28;20367;-72
2022/01/04 07:01:40;;;;;;;0.03;0.00;;;10.10;88.90;;;;;;5024432;28;20045;-71
2022/01/04 07:04:07;;;;;;;0.28;0.10;;;10.00;88.90;;;;;;5026855;28;20037;-73
2022/01/04 07:06:35;;;;;;;0.43;0.10;;;10.00;88.90;;;;;;5026612;28;20406;-70
2022/01/04 07:09:03;;;;;;;0.00;0.00;;;10.00;88.80;;;;;;5026244;28;20045;-70
2022/01/04 07:11:32;;;;;;;0.35;0.00;;;9.90;88.70;;;;;;5005238;28;20058;-70
2022/01/04 07:14:01;;;;;;;0.03;0.03;;;9.90;88.70;;;;;;5007833;28;20046;-71
2022/01/04 07:16:27;;;;;;;0.20;0.00;;;9.90;88.60;;;;;;5008606;28;20056;-72
2022/01/04 07:18:55;;;;;;;0.00;0.00;;;9.90;88.70;;;;;;5008619;28;20108;-71
2022/01/04 07:21:22;;;;;;;0.00;0.00;;;9.90;88.60;;;;;;5007843;28;20383;-71
2022/01/04 07:23:49;;;;;;;0.00;0.00;;;9.80;88.60;;;;;;5009179;28;20042;-70
2022/01/04 07:26:17;;;;;;;0.00;0.00;;;9.80;88.60;;;;;;5008522;28;20042;-70
2022/01/04 07:28:48;;;;;;;0.00;0.00;;;9.80;88.60;;;;;;5007591;28;20422;-71
2022/01/04 07:31:16;;;;;;;0.30;0.10;;;9.80;88.60;;;;;;5008490;28;20068;-71
2022/01/04 07:33:45;;;;;;;0.03;0.00;;;9.70;88.60;;;;;;5008362;28;20046;-72
2022/01/04 07:36:12;;;;;;;0.00;0.00;;;9.70;88.60;;;;;;5008579;28;20600;-71
2022/01/04 07:38:40;;;;;;;0.20;0.10;;;9.70;88.60;;;;;;5009329;28;20052;-72
2022/01/04 07:41:07;;;;;;;0.32;0.15;;;9.70;88.60;;;;;;5009148;28;20052;-70
2022/01/04 07:43:34;;;;;;;1.45;0.10;;;9.70;88.50;;;;;;5008953;28;20140;-70
2022/01/04 07:46:03;;;;;;;0.03;0.03;;;9.70;88.70;;;;;;5009623;28;20042;-71
2022/01/04 07:48:31;;;;;;;1.67;0.10;;;9.70;88.50;;;;;;5007880;28;20384;-72
2022/01/04 07:50:59;;;;;;;0.25;0.20;;;9.70;88.40;;;;;;5009115;28;20038;-70
2022/01/04 07:53:26;;;;;;;0.70;0.17;;;9.60;88.40;;;;;;5007722;28;20097;-71
2022/01/04 07:55:53;;;;;;;1.75;0.38;;;9.60;88.40;;;;;;5009106;28;20052;-73
2022/01/04 07:58:20;;;;;;;0.60;0.30;;;9.60;88.40;;;;;;5008873;28;20042;-71
2022/01/04 08:00:47;;;;;;;3.50;0.30;;;9.60;88.40;;;;;;5004498;28;20048;-70
2022/01/04 08:03:15;;;;;;;0.52;0.10;;;9.60;88.40;;;;;;5006532;28;20046;-71
2022/01/04 08:05:42;;;;;;;0.90;0.30;;;9.60;88.40;;;;;;5008144;28;20144;-71
2022/01/04 08:08:09;;;;;;;0.85;0.30;;;9.60;88.40;;;;;;5007403;28;20072;-70
2022/01/04 08:10:37;;;;;;;2.63;0.40;;;9.50;88.50;;;;;;5013552;28;20049;-71
2022/01/04 08:13:04;;;;;;;0.95;0.38;;;9.60;88.50;;;;;;5031045;28;20046;-72
2022/01/04 08:15:31;;;;;;;0.57;0.20;;;9.60;88.50;;;;;;5030735;28;20593;-72
2022/01/04 08:17:59;;;;;;;0.35;0.13;;;9.50;88.50;;;;;;5029925;28;20087;-73
2022/01/04 08:20:27;;;;;;;0.52;0.52;;;9.60;88.50;;;;;;5030718;28;20060;-71
2022/01/04 08:22:54;;;;;;;0.88;0.10;;;9.60;88.50;;;;;;5030446;28;20092;-70
2022/01/04 08:25:21;;;;;;;1.38;0.30;;;9.60;88.50;;;;;;5030345;28;20044;-71
2022/01/04 08:27:48;;;;;;;0.32;0.20;;;9.60;88.50;;;;;;5028594;28;20052;-71
2022/01/04 08:30:16;;;;;;;0.20;0.20;;;9.60;88.50;;;;;;5030549;28;20695;-72
2022/01/04 08:32:43;;;;;;;0.32;0.17;;;9.60;88.50;;;;;;5030055;28;20051;-71
2022/01/04 08:35:11;;;;;;;1.05;0.30;;;9.60;88.50;;;;;;5029406;28;20495;-71
2022/01/04 08:37:40;;;;;;;2.40;0.30;;;9.60;88.40;;;;;;5028183;28;20045;-70
2022/01/04 08:40:08;;;;;;;1.58;0.50;;;9.60;88.40;;;;;;5030047;28;20057;-71
2022/01/04 08:42:37;;;;;;;1.10;0.43;;;9.60;88.30;;;;;;5031040;28;20045;-71
2022/01/04 08:45:05;;;;;;;1.58;0.50;;;9.60;88.30;;;;;;5029250;28;20053;-72
2022/01/04 08:47:32;;;;;;;1.25;0.30;;;9.60;88.30;;;;;;5030202;28;20041;-71
2022/01/04 08:49:59;;;;;;;3.25;0.40;;;9.60;88.30;;;;;;5012853;28;20478;-71
2022/01/04 08:52:27;;;;;;;1.02;0.30;;;9.60;88.30;;;;;;5026652;28;20043;-70
2022/01/04 08:54:55;;;;;;;1.02;0.35;;;9.50;88.50;;;;;;5028106;28;20095;-71
2022/01/04 08:57:23;;;;;;;0.57;0.30;;;9.50;88.50;;;;;;5030774;28;20140;-71
2022/01/04 08:59:54;;;;;;;4.07;0.38;;;9.50;88.40;;;;;;5030113;28;20065;-71
2022/01/04 09:02:22;;;;;;;0.63;0.43;;;9.50;88.40;;;;;;5028451;28;20095;-71
2022/01/04 09:04:50;;;;;;;2.10;0.60;;;9.50;88.40;;;;;;5031125;28;20507;-71
2022/01/04 09:07:18;;;;;;;3.20;0.77;;;9.60;88.40;;;;;;5031102;28;20543;-72
2022/01/04 09:09:45;;;;;;;2.20;0.50;;;9.50;88.40;;;;;;5030515;28;20049;-71
2022/01/04 09:12:14;;;;;;;3.00;0.43;;;9.50;88.40;;;;;;5029447;28;20057;-70
2022/01/04 09:14:56;;;;;;;0.68;0.45;;;9.60;88.40;;;;;;5030696;28;20034;-71
2022/01/04 09:20:11;;;;;;;2.08;0.40;;;9.50;88.30;;;;;;5031164;28;20407;-71
2022/01/04 09:22:39;;;;;;;2.10;0.55;;;9.50;88.30;;;;;;5029140;28;20381;-70
2022/01/04 09:25:07;;;;;;;1.20;0.35;;;9.50;88.30;;;;;;5030766;28;20057;-72
2022/01/04 09:27:36;;;;;;;0.90;0.30;;;9.50;88.30;;;;;;5030037;28;20511;-71
2022/01/04 09:30:06;;;;;;;1.70;0.60;;;9.50;88.30;;;;;;5031417;28;20052;-72
2022/01/04 09:32:35;;;;;;;2.92;0.40;;;9.50;88.40;;;;;;5030863;28;20124;-70
2022/01/04 09:35:04;;;;;;;0.95;0.30;;;9.50;88.40;;;;;;5030104;28;20053;-71
2022/01/04 09:37:31;;;;;;;1.30;0.30;;;9.50;88.30;;;;;;5030622;28;20056;-70
2022/01/04 09:39:57;;;;;;;1.30;0.30;;;9.50;88.30;;;;;;5030316;28;20042;-70
2022/01/04 09:42:24;;;;;;;3.40;0.40;;;9.50;88.30;;;;;;5028774;28;20052;-71
2022/01/04 09:44:53;;;;;;;0.10;0.10;;;9.50;88.20;;;;;;5030877;28;20053;-71
2022/01/04 09:47:20;;;;;;;1.63;0.20;;;9.40;88.20;;;;;;5031317;28;20088;-71
2022/01/04 09:49:47;;;;;;;2.25;0.32;;;9.40;88.20;;;;;;5029889;28;20049;-71
2022/01/04 09:52:19;;;;;;;2.08;0.50;;;9.50;88.10;;;;;;5030822;28;20053;-71
2022/01/04 09:54:50;;;;;;;1.13;0.20;;;9.50;88.10;;;;;;5029142;28;20045;-71
2022/01/04 09:57:17;;;;;;;0.75;0.40;;;9.40;88.20;;;;;;5028086;28;20128;-70
2022/01/04 09:59:44;;;;;;;0.68;0.30;;;9.40;88.20;;;;;;5027621;28;20049;-71
2022/01/04 10:02:18;;;;;;;0.82;0.30;;;9.50;88.20;;;;;;5025368;28;20297;-71
2022/01/04 10:04:45;;;;;;;0.55;0.20;;;9.40;88.20;;;;;;5027478;28;20037;-72
2022/01/04 10:07:12;;;;;;;1.35;0.50;;;9.40;88.30;;;;;;5028615;28;20049;-70
2022/01/04 10:09:44;;;;;;;2.33;0.30;;;9.40;88.10;;;;;;5028703;28;20489;-71
2022/01/04 10:12:12;;;;;;;1.40;0.50;;;9.40;88.20;;;;;;5028087;28;20080;-70
2022/01/04 10:14:41;;;;;;;2.08;0.50;;;9.40;88.20;;;;;;5027248;28;20057;-70
2022/01/04 10:17:10;;;;;;;2.85;0.40;;;9.40;88.30;;;;;;5028717;28;20045;-71
2022/01/04 10:19:41;;;;;;;1.63;0.65;;;9.40;88.40;;;;;;5010184;28;20464;-71
2022/01/04 10:22:12;;;;;;;;;;;9.50;88.40;;;;;;5027535;28;20045;-72
2022/01/04 10:24:40;;;;;;;3.00;0.57;;;9.50;88.30;;;;;;5028960;28;20472;-71
2022/01/04 10:27:28;;;;;;;2.65;1.02;;;9.50;88.30;;;;;;5027399;28;20064;-71
2022/01/04 10:30:09;;;;;;;1.95;0.43;;;9.50;88.30;;;;;;5028005;28;20049;-70
2022/01/04 10:32:44;;;;;;;0.73;0.38;;;9.40;88.40;;;;;;5027855;28;20132;-71
2022/01/04 10:35:21;;;;;;;2.13;0.50;;;9.40;88.50;;;;;;5028799;28;20172;-71
2022/01/04 10:37:48;;;;;;;2.95;0.70;;;9.40;88.50;;;;;;5011445;28;20099;-70
2022/01/04 10:40:15;;;;;;;4.85;1.20;;;9.50;88.40;;;;;;5028876;28;20041;-71
2022/01/04 10:42:42;;;;;;;4.90;0.90;;;9.40;88.40;;;;;;5029362;28;20064;-71
2022/01/04 10:45:31;;;;;;;2.90;0.70;;;9.50;88.50;;;;;;5030327;28;20038;-70
2022/01/04 10:48:14;;;;;;;2.03;0.57;;;9.50;88.30;;;;;;5025308;28;20046;-71
2022/01/04 10:50:44;;;;;;;1.85;0.52;;;9.60;88.00;;;;;;5029488;28;20048;-71
2022/01/04 10:53:17;;;;;;;1.77;0.47;;;9.50;88.00;;;;;;5029451;28;20124;-71
2022/01/04 10:55:46;;;;;;;1.25;0.55;;;9.60;87.80;;;;;;5029075;28;20045;-71
2022/01/04 10:58:25;;;;;;;1.27;0.32;;;9.60;87.50;;;;;;5029025;28;20303;-70
2022/01/04 11:00:57;;;;;;;0.75;0.20;;;9.60;87.20;;;;;;5026987;28;20064;-70
2022/01/04 11:03:26;;;;;;;0.70;0.28;;;9.60;87.10;;;;;;5029315;28;20046;-70
2022/01/04 11:05:56;;;;;;;0.95;0.28;;;9.50;87.10;;;;;;5029175;28;20041;-71
2022/01/04 11:08:24;;;;;;;1.33;0.38;;;9.50;87.00;;;;;;5028961;28;20071;-71
2022/01/04 11:10:53;;;;;;;1.33;0.28;;;9.50;86.90;;;;;;5028380;28;20059;-70
2022/01/04 11:13:20;;;;;;;0.57;0.25;;;9.50;86.60;;;;;;5011750;28;20150;-71
2022/01/04 11:15:47;;;;;;;0.95;0.20;;;9.50;86.30;;;;;;5028463;28;20053;-72
2022/01/04 11:18:23;;;;;;;0.43;0.20;;;9.40;86.40;;;;;;5028412;28;20052;-70
2022/01/04 11:20:52;;;;;;;0.57;0.10;;;9.40;85.90;;;;;;5029094;28;20053;-71
2022/01/04 11:23:32;;;;;;;1.58;0.20;;;9.30;85.70;;;;;;5028434;28;20045;-71
2022/01/04 11:26:00;;;;;;;0.45;0.13;;;9.30;85.30;;;;;;5029244;28;20049;-70
2022/01/04 11:28:30;;;;;;;0.10;0.10;;;9.30;84.80;;;;;;5028742;28;20045;-71
2022/01/04 11:31:46;;;;;;;0.10;0.00;;;9.20;84.20;;;;;;5028678;28;20569;-71
2022/01/04 11:34:18;;;;;;;0.35;0.10;;;9.20;84.20;;;;;;5027567;28;20049;-71
2022/01/04 11:36:49;;;;;;;0.10;0.10;;;9.10;84.30;;;;;;5026592;28;20152;-71
2022/01/04 11:39:32;;;;;;;0.28;0.10;;;9.10;84.30;;;;;;5027035;28;20069;-74
2022/01/04 11:42:01;;;;;;;0.28;0.20;;;9.10;84.00;;;;;;5026122;28;20072;-70
2022/01/04 11:44:32;;;;;;;0.47;0.10;;;9.10;83.70;;;;;;5027211;28;20053;-70
2022/01/04 11:47:05;;;;;;;0.10;0.10;;;9.00;83.40;;;;;;5028571;28;20038;-72
2022/01/04 11:49:34;;;;;;;0.65;0.10;;;9.00;83.70;;;;;;5030414;28;20068;-71
2022/01/04 11:52:01;;;;;;;0.85;0.10;;;9.00;83.60;;;;;;5031232;28;20029;-71
2022/01/04 11:54:31;;;;;;;0.73;0.10;;;9.00;83.60;;;;;;5030815;28;20112;-70
2022/01/04 11:57:01;;;;;;;0.20;0.10;;;8.90;83.70;;;;;;5031133;28;20045;-69
2022/01/04 11:59:33;;;;;;;0.10;0.10;;;9.00;83.80;;;;;;5030138;28;20053;-70
2022/01/04 12:02:26;;;;;;;0.55;0.20;;;8.90;83.90;;;;;;5028798;28;20111;-72
2022/01/04 12:04:54;;;;;;;0.20;0.10;;;8.90;84.10;;;;;;5030468;28;20041;-72
2022/01/04 12:07:47;;;;;;;0.05;0.05;;;8.90;84.20;;;;;;5030760;28;20045;-74
2022/01/04 12:10:38;;;;;;;0.10;0.10;;;8.90;84.30;;;;;;5031359;28;20140;-72
2022/01/04 12:13:09;;;;;;;0.10;0.10;;;8.90;84.50;;;;;;5030954;28;20060;-71
2022/01/04 12:15:47;;;;;;;0.10;0.10;;;8.80;84.70;;;;;;5031121;28;20041;-73
2022/01/04 12:18:46;;;;;;;0.20;0.10;;;8.80;84.80;;;;;;5031841;28;20149;-72
2022/01/04 12:21:20;;;;;;;1.13;0.40;;;8.90;85.00;;;;;;5018624;28;20061;-72
2022/01/04 12:23:48;;;;;;;1.02;0.30;;;8.80;85.00;;;;;;5030904;28;20041;-72
2022/01/04 12:26:23;;;;;;;1.25;0.25;;;8.80;85.10;;;;;;5032577;28;20041;-70
2022/01/04 12:29:23;;;;;;;2.72;0.88;;;8.70;85.20;;;;;;5030835;28;20037;-71
2022/01/04 12:31:52;;;;;;;0.63;0.20;;;8.70;85.50;;;;;;5013216;28;20045;-70
2022/01/04 12:34:33;;;;;;;0.98;0.30;;;8.70;85.60;;;;;;5031911;28;20514;-69
2022/01/04 12:37:02;;;;;;;1.10;0.22;;;8.70;85.50;;;;;;5031476;28;20124;-70
2022/01/04 12:39:35;;;;;;;1.45;0.47;;;8.70;85.60;;;;;;5031845;28;20060;-73
2022/01/04 12:42:05;;;;;;;1.33;0.43;;;8.70;85.70;;;;;;5031641;28;20073;-71
2022/01/04 12:44:32;;;;;;;0.93;0.60;;;8.70;85.60;;;;;;5032380;28;20056;-72
2022/01/04 12:47:00;;;;;;;1.33;0.73;;;8.70;85.60;;;;;;5030704;28;20041;-71
2022/01/04 12:49:32;;;;;;;1.55;0.88;;;8.70;85.50;;;;;;5031767;28;20126;-72
2022/01/04 12:52:00;;;;;;;1.88;0.57;;;8.70;85.50;;;;;;5032089;28;20057;-72
2022/01/04 12:54:30;;;;;;;1.58;0.60;;;8.70;85.40;;;;;;5032405;28;20104;-71
2022/01/04 12:56:59;;;;;;;3.05;0.73;;;8.70;85.40;;;;;;5030877;28;20037;-70
2022/01/04 12:59:35;;;;;;;2.72;0.52;;;8.70;85.60;;;;;;5030468;28;20121;-71
2022/01/04 13:02:10;;;;;;;1.45;0.50;;;8.70;85.60;;;;;;5029735;28;20049;-71
2022/01/04 13:04:38;;;;;;;2.72;0.98;;;8.70;85.60;;;;;;5029935;28;20421;-72
2022/01/04 13:07:06;;;;;;;9.95;2.70;;;8.70;85.60;;;;;;5031615;28;20073;-73
2022/01/04 13:09:33;;;;;;;9.70;3.00;;;8.70;85.60;;;;;;5031098;28;20538;-71
2022/01/04 13:12:03;;;;;;;9.90;2.50;;;8.70;85.70;;;;;;5031036;28;20684;-72
2022/01/04 13:14:34;;;;;;;8.20;2.50;;;8.70;85.70;;;;;;5029628;28;20053;-70